sensor_id;sensor_type;location;lat;lon;timestamp;temperature;humidity
6696;DHT22;3385;48.928;10.330;2022-12-29T00:02:18;7.20;99.90
6696;DHT22;3385;48.928;10.330;2022-12-29T00:04:44;7.30;99.90
6696;DHT22;3385;48.928;10.330;2022-12-29T00:07:10;7.30;99.90
6696;DHT22;3385;48.928;10.330;2022-12-29T00:09:36;7.40;99.90
6696;DHT22;3385;48.928;10.330;2022-12-29T00:12:03;7.30;99.90
6696;DHT22;3385;48.928;10.330;2022-12-29T00:14:29;7.20;99.90
6696;DHT22;3385;48.928;10.330;2022-12-29T00:17:13;7.40;99.90
6696;DHT22;3385;48.928;10.330;2022-12-29T00:19:40;7.30;99.90
6696;DHT22;3385;48.928;10.330;2022-12-29T00:22:24;7.30;99.90
6696;DHT22;3385;48.928;10.330;2022-12-29T00:25:10;7.20;99.90
6696;DHT22;3385;48.928;10.330;2022-12-29T00:27:55;7.30;99.90
6696;DHT22;3385;48.928;10.330;2022-12-29T00:30:39;7.20;99.90
6696;DHT22;3385;48.928;10.330;2022-12-29T00:33:27;7.30;99.90
6696;DHT22;3385;48.928;10.330;2022-12-29T00:36:23;7.20;99.90
6696;DHT22;3385;48.928;10.330;2022-12-29T00:39:01;7.20;99.90
6696;DHT22;3385;48.928;10.330;2022-12-29T00:41:46;7.30;99.90
6696;DHT22;3385;48.928;10.330;2022-12-29T00:44:31;7.30;99.90
6696;DHT22;3385;48.928;10.330;2022-12-29T00:46:56;7.40;99.90
6696;DHT22;3385;48.928;10.330;2022-12-29T00:49:22;7.30;99.90
6696;DHT22;3385;48.928;10.330;2022-12-29T00:52:03;7.40;99.90
6696;DHT22;3385;48.928;10.330;2022-12-29T00:54:31;7.50;99.90
6696;DHT22;3385;48.928;10.330;2022-12-29T00:56:57;7.50;99.90
6696;DHT22;3385;48.928;10.330;2022-12-29T00:59:23;7.60;99.90
6696;DHT22;3385;48.928;10.330;2022-12-29T01:01:50;7.60;99.90
6696;DHT22;3385;48.928;10.330;2022-12-29T01:04:16;7.70;99.90
6696;DHT22;3385;48.928;10.330;2022-12-29T01:06:42;7.60;99.90
6696;DHT22;3385;48.928;10.330;2022-12-29T01:09:09;7.60;99.90
6696;DHT22;3385;48.928;10.330;2022-12-29T01:11:54;7.60;99.90
6696;DHT22;3385;48.928;10.330;2022-12-29T01:14:20;7.60;99.90
6696;DHT22;3385;48.928;10.330;2022-12-29T01:16:46;7.50;99.90
6696;DHT22;3385;48.928;10.330;2022-12-29T01:19:13;7.40;99.90
6696;DHT22;3385;48.928;10.330;2022-12-29T01:21:39;7.30;99.90
6696;DHT22;3385;48.928;10.330;2022-12-29T01:24:05;7.40;99.90
6696;DHT22;3385;48.928;10.330;2022-12-29T01:26:30;7.60;99.90
6696;DHT22;3385;48.928;10.330;2022-12-29T01:28:56;7.40;99.90
6696;DHT22;3385;48.928;10.330;2022-12-29T01:31:22;7.40;99.90
6696;DHT22;3385;48.928;10.330;2022-12-29T01:33:48;7.50;99.90
6696;DHT22;3385;48.928;10.330;2022-12-29T01:36:17;7.50;99.90
6696;DHT22;3385;48.928;10.330;2022-12-29T01:38:43;7.30;99.90
6696;DHT22;3385;48.928;10.330;2022-12-29T01:41:13;7.60;99.90
6696;DHT22;3385;48.928;10.330;2022-12-29T01:43:40;7.40;99.90
6696;DHT22;3385;48.928;10.330;2022-12-29T01:46:41;7.40;99.90
6696;DHT22;3385;48.928;10.330;2022-12-29T01:49:22;7.50;99.90
6696;DHT22;3385;48.928;10.330;2022-12-29T01:54:55;7.50;99.90
6696;DHT22;3385;48.928;10.330;2022-12-29T01:57:25;7.40;99.90
6696;DHT22;3385;48.928;10.330;2022-12-29T01:59:58;7.50;99.90
6696;DHT22;3385;48.928;10.330;2022-12-29T02:02:26;7.50;99.90
6696;DHT22;3385;48.928;10.330;2022-12-29T02:04:52;7.40;99.90
6696;DHT22;3385;48.928;10.330;2022-12-29T02:07:23;7.50;99.90
6696;DHT22;3385;48.928;10.330;2022-12-29T02:09:51;7.40;99.90
6696;DHT22;3385;48.928;10.330;2022-12-29T02:12:20;7.50;99.90
6696;DHT22;3385;48.928;10.330;2022-12-29T02:14:47;7.40;99.90
6696;DHT22;3385;48.928;10.330;2022-12-29T02:23:20;7.70;99.90
6696;DHT22;3385;48.928;10.330;2022-12-29T02:31:28;7.60;99.90
6696;DHT22;3385;48.928;10.330;2022-12-29T02:34:26;7.60;99.90
6696;DHT22;3385;48.928;10.330;2022-12-29T02:39:40;7.50;99.90
6696;DHT22;3385;48.928;10.330;2022-12-29T02:42:29;7.60;99.90
6696;DHT22;3385;48.928;10.330;2022-12-29T02:45:16;7.50;99.90
6696;DHT22;3385;48.928;10.330;2022-12-29T02:53:16;7.50;99.90
6696;DHT22;3385;48.928;10.330;2022-12-29T02:55:49;7.40;99.90
6696;DHT22;3385;48.928;10.330;2022-12-29T02:58:19;7.50;99.90
6696;DHT22;3385;48.928;10.330;2022-12-29T03:04:18;7.50;99.90
6696;DHT22;3385;48.928;10.330;2022-12-29T03:12:23;7.50;99.90
6696;DHT22;3385;48.928;10.330;2022-12-29T03:15:20;7.40;99.90
6696;DHT22;3385;48.928;10.330;2022-12-29T03:18:12;7.40;99.90
6696;DHT22;3385;48.928;10.330;2022-12-29T03:20:43;7.10;99.90
6696;DHT22;3385;48.928;10.330;2022-12-29T03:23:12;7.50;99.90
6696;DHT22;3385;48.928;10.330;2022-12-29T03:25:46;7.50;99.90
6696;DHT22;3385;48.928;10.330;2022-12-29T03:28:23;7.40;99.90
6696;DHT22;3385;48.928;10.330;2022-12-29T03:33:21;7.40;99.90
6696;DHT22;3385;48.928;10.330;2022-12-29T03:35:50;7.30;99.90
6696;DHT22;3385;48.928;10.330;2022-12-29T03:38:45;7.30;99.90
6696;DHT22;3385;48.928;10.330;2022-12-29T03:41:16;7.50;99.90
6696;DHT22;3385;48.928;10.330;2022-12-29T03:43:43;7.40;99.90
6696;DHT22;3385;48.928;10.330;2022-12-29T03:46:08;7.40;99.90
6696;DHT22;3385;48.928;10.330;2022-12-29T03:48:37;7.40;99.90
6696;DHT22;3385;48.928;10.330;2022-12-29T03:51:03;7.50;99.90
6696;DHT22;3385;48.928;10.330;2022-12-29T03:53:29;7.90;99.90
6696;DHT22;3385;48.928;10.330;2022-12-29T04:00:52;7.50;99.90
6696;DHT22;3385;48.928;10.330;2022-12-29T04:03:18;7.40;99.90
6696;DHT22;3385;48.928;10.330;2022-12-29T04:05:43;7.50;99.90
6696;DHT22;3385;48.928;10.330;2022-12-29T04:08:09;7.40;99.90
6696;DHT22;3385;48.928;10.330;2022-12-29T04:10:35;7.40;99.90
6696;DHT22;3385;48.928;10.330;2022-12-29T04:13:00;7.40;99.90
6696;DHT22;3385;48.928;10.330;2022-12-29T04:15:26;7.30;99.90
6696;DHT22;3385;48.928;10.330;2022-12-29T04:17:52;7.20;99.90
6696;DHT22;3385;48.928;10.330;2022-12-29T04:20:17;7.30;99.90
6696;DHT22;3385;48.928;10.330;2022-12-29T04:23:03;7.40;99.90
6696;DHT22;3385;48.928;10.330;2022-12-29T04:25:30;7.20;99.90
6696;DHT22;3385;48.928;10.330;2022-12-29T04:27:56;7.10;99.90
6696;DHT22;3385;48.928;10.330;2022-12-29T04:30:22;7.10;99.90
6696;DHT22;3385;48.928;10.330;2022-12-29T04:32:48;7.00;99.90
6696;DHT22;3385;48.928;10.330;2022-12-29T04:35:14;7.00;99.90
6696;DHT22;3385;48.928;10.330;2022-12-29T04:37:39;7.00;99.90
6696;DHT22;3385;48.928;10.330;2022-12-29T04:40:06;6.90;99.90
6696;DHT22;3385;48.928;10.330;2022-12-29T04:42:32;6.70;99.90
6696;DHT22;3385;48.928;10.330;2022-12-29T04:44:57;6.80;99.90
6696;DHT22;3385;48.928;10.330;2022-12-29T04:47:23;6.80;99.90
6696;DHT22;3385;48.928;10.330;2022-12-29T04:49:49;6.80;99.90
6696;DHT22;3385;48.928;10.330;2022-12-29T04:52:14;6.80;99.90
6696;DHT22;3385;48.928;10.330;2022-12-29T04:54:43;6.80;99.90
6696;DHT22;3385;48.928;10.330;2022-12-29T04:57:08;7.90;99.90
6696;DHT22;3385;48.928;10.330;2022-12-29T04:59:34;6.70;99.90
6696;DHT22;3385;48.928;10.330;2022-12-29T05:02:00;6.80;99.90
6696;DHT22;3385;48.928;10.330;2022-12-29T05:04:25;6.80;99.90
6696;DHT22;3385;48.928;10.330;2022-12-29T05:06:54;6.90;99.90
6696;DHT22;3385;48.928;10.330;2022-12-29T05:09:20;3.00;99.90
6696;DHT22;3385;48.928;10.330;2022-12-29T05:11:45;6.90;99.90
6696;DHT22;3385;48.928;10.330;2022-12-29T05:14:11;6.80;99.90
6696;DHT22;3385;48.928;10.330;2022-12-29T05:16:37;6.80;99.90
6696;DHT22;3385;48.928;10.330;2022-12-29T05:19:02;6.80;99.90
6696;DHT22;3385;48.928;10.330;2022-12-29T05:21:28;6.70;99.90
6696;DHT22;3385;48.928;10.330;2022-12-29T05:23:54;6.70;99.90
6696;DHT22;3385;48.928;10.330;2022-12-29T05:26:19;6.70;99.90
6696;DHT22;3385;48.928;10.330;2022-12-29T05:28:45;6.60;99.90
6696;DHT22;3385;48.928;10.330;2022-12-29T05:31:11;6.70;99.90
6696;DHT22;3385;48.928;10.330;2022-12-29T05:33:36;6.90;99.90
6696;DHT22;3385;48.928;10.330;2022-12-29T05:36:06;6.60;99.90
6696;DHT22;3385;48.928;10.330;2022-12-29T05:38:33;6.50;99.90
6696;DHT22;3385;48.928;10.330;2022-12-29T05:40:58;6.50;99.90
6696;DHT22;3385;48.928;10.330;2022-12-29T05:43:27;6.50;99.90
6696;DHT22;3385;48.928;10.330;2022-12-29T05:45:53;6.60;99.90
6696;DHT22;3385;48.928;10.330;2022-12-29T05:48:19;6.60;99.90
6696;DHT22;3385;48.928;10.330;2022-12-29T05:50:49;6.50;99.90
6696;DHT22;3385;48.928;10.330;2022-12-29T05:53:15;6.40;99.90
6696;DHT22;3385;48.928;10.330;2022-12-29T05:55:40;6.60;99.90
6696;DHT22;3385;48.928;10.330;2022-12-29T05:58:06;6.40;99.90
6696;DHT22;3385;48.928;10.330;2022-12-29T06:00:32;6.50;99.90
6696;DHT22;3385;48.928;10.330;2022-12-29T06:02:57;6.40;99.90
6696;DHT22;3385;48.928;10.330;2022-12-29T06:05:23;6.30;99.90
6696;DHT22;3385;48.928;10.330;2022-12-29T06:07:49;6.40;99.90
6696;DHT22;3385;48.928;10.330;2022-12-29T06:10:14;6.30;99.90
6696;DHT22;3385;48.928;10.330;2022-12-29T06:12:40;6.40;99.90
6696;DHT22;3385;48.928;10.330;2022-12-29T06:15:06;6.30;99.90
6696;DHT22;3385;48.928;10.330;2022-12-29T06:17:32;6.40;99.90
6696;DHT22;3385;48.928;10.330;2022-12-29T06:19:58;6.40;99.90
6696;DHT22;3385;48.928;10.330;2022-12-29T06:22:23;6.40;99.90
6696;DHT22;3385;48.928;10.330;2022-12-29T06:24:49;6.30;99.90
6696;DHT22;3385;48.928;10.330;2022-12-29T06:27:15;6.30;99.90
6696;DHT22;3385;48.928;10.330;2022-12-29T06:29:41;6.30;99.90
6696;DHT22;3385;48.928;10.330;2022-12-29T06:32:08;6.30;99.90
6696;DHT22;3385;48.928;10.330;2022-12-29T06:34:33;6.40;99.90
6696;DHT22;3385;48.928;10.330;2022-12-29T06:36:59;6.20;99.90
6696;DHT22;3385;48.928;10.330;2022-12-29T06:39:25;6.20;99.90
6696;DHT22;3385;48.928;10.330;2022-12-29T06:41:54;6.10;99.90
6696;DHT22;3385;48.928;10.330;2022-12-29T06:44:21;6.20;99.90
6696;DHT22;3385;48.928;10.330;2022-12-29T06:46:47;6.30;99.90
6696;DHT22;3385;48.928;10.330;2022-12-29T06:49:13;6.10;99.90
6696;DHT22;3385;48.928;10.330;2022-12-29T06:51:38;6.50;99.90
6696;DHT22;3385;48.928;10.330;2022-12-29T06:54:04;6.30;99.90
6696;DHT22;3385;48.928;10.330;2022-12-29T06:56:30;6.20;99.90
6696;DHT22;3385;48.928;10.330;2022-12-29T06:58:56;6.30;99.90
6696;DHT22;3385;48.928;10.330;2022-12-29T07:01:21;6.20;99.90
6696;DHT22;3385;48.928;10.330;2022-12-29T07:03:47;6.20;99.90
6696;DHT22;3385;48.928;10.330;2022-12-29T07:06:13;6.60;99.90
6696;DHT22;3385;48.928;10.330;2022-12-29T07:08:39;6.20;99.90
6696;DHT22;3385;48.928;10.330;2022-12-29T07:11:05;6.20;99.90
6696;DHT22;3385;48.928;10.330;2022-12-29T07:13:30;5.90;99.90
6696;DHT22;3385;48.928;10.330;2022-12-29T07:15:56;6.10;99.90
6696;DHT22;3385;48.928;10.330;2022-12-29T07:18:22;6.10;99.90
6696;DHT22;3385;48.928;10.330;2022-12-29T07:20:48;6.10;99.90
6696;DHT22;3385;48.928;10.330;2022-12-29T07:23:14;6.10;99.90
6696;DHT22;3385;48.928;10.330;2022-12-29T07:25:39;6.00;99.90
6696;DHT22;3385;48.928;10.330;2022-12-29T07:28:06;6.10;99.90
6696;DHT22;3385;48.928;10.330;2022-12-29T07:30:36;6.10;99.90
6696;DHT22;3385;48.928;10.330;2022-12-29T07:33:04;6.20;99.90
6696;DHT22;3385;48.928;10.330;2022-12-29T07:35:30;6.10;99.90
6696;DHT22;3385;48.928;10.330;2022-12-29T07:37:56;6.20;99.90
6696;DHT22;3385;48.928;10.330;2022-12-29T07:40:21;6.10;99.90
6696;DHT22;3385;48.928;10.330;2022-12-29T07:42:47;6.30;99.90
6696;DHT22;3385;48.928;10.330;2022-12-29T07:45:13;6.30;99.90
6696;DHT22;3385;48.928;10.330;2022-12-29T07:47:38;6.30;99.90
6696;DHT22;3385;48.928;10.330;2022-12-29T07:50:05;6.30;99.90
6696;DHT22;3385;48.928;10.330;2022-12-29T07:52:30;6.40;99.90
6696;DHT22;3385;48.928;10.330;2022-12-29T07:54:56;6.30;99.90
6696;DHT22;3385;48.928;10.330;2022-12-29T07:57:22;6.40;99.90
6696;DHT22;3385;48.928;10.330;2022-12-29T07:59:48;6.40;99.90
6696;DHT22;3385;48.928;10.330;2022-12-29T08:02:13;6.40;99.90
6696;DHT22;3385;48.928;10.330;2022-12-29T08:04:39;6.60;99.90
6696;DHT22;3385;48.928;10.330;2022-12-29T08:07:05;6.40;99.90
6696;DHT22;3385;48.928;10.330;2022-12-29T08:09:30;6.60;99.90
6696;DHT22;3385;48.928;10.330;2022-12-29T08:11:56;6.40;99.90
6696;DHT22;3385;48.928;10.330;2022-12-29T08:14:22;6.60;99.90
6696;DHT22;3385;48.928;10.330;2022-12-29T08:16:48;6.70;99.90
6696;DHT22;3385;48.928;10.330;2022-12-29T08:19:14;6.60;99.90
6696;DHT22;3385;48.928;10.330;2022-12-29T08:21:39;6.60;99.90
6696;DHT22;3385;48.928;10.330;2022-12-29T08:24:06;6.50;99.90
6696;DHT22;3385;48.928;10.330;2022-12-29T08:26:33;6.70;99.90
6696;DHT22;3385;48.928;10.330;2022-12-29T08:28:58;6.70;99.90
6696;DHT22;3385;48.928;10.330;2022-12-29T08:31:24;6.80;99.90
6696;DHT22;3385;48.928;10.330;2022-12-29T08:33:50;7.00;99.90
6696;DHT22;3385;48.928;10.330;2022-12-29T08:36:17;7.20;99.90
6696;DHT22;3385;48.928;10.330;2022-12-29T08:38:43;7.30;99.90
6696;DHT22;3385;48.928;10.330;2022-12-29T08:41:09;7.40;99.90
6696;DHT22;3385;48.928;10.330;2022-12-29T08:43:34;7.60;99.90
6696;DHT22;3385;48.928;10.330;2022-12-29T08:46:00;7.80;99.90
6696;DHT22;3385;48.928;10.330;2022-12-29T08:48:26;7.90;99.90
6696;DHT22;3385;48.928;10.330;2022-12-29T08:50:52;7.90;99.90
6696;DHT22;3385;48.928;10.330;2022-12-29T08:53:18;8.30;99.90
6696;DHT22;3385;48.928;10.330;2022-12-29T08:55:58;8.20;99.90
6696;DHT22;3385;48.928;10.330;2022-12-29T08:58:25;8.40;99.90
6696;DHT22;3385;48.928;10.330;2022-12-29T09:00:55;8.40;99.90
6696;DHT22;3385;48.928;10.330;2022-12-29T09:03:22;8.70;99.90
6696;DHT22;3385;48.928;10.330;2022-12-29T09:05:50;8.80;99.90
6696;DHT22;3385;48.928;10.330;2022-12-29T09:08:16;8.80;99.90
6696;DHT22;3385;48.928;10.330;2022-12-29T09:10:43;9.00;99.90
6696;DHT22;3385;48.928;10.330;2022-12-29T09:13:09;9.20;99.90
6696;DHT22;3385;48.928;10.330;2022-12-29T09:15:34;8.90;99.90
6696;DHT22;3385;48.928;10.330;2022-12-29T09:18:00;9.30;99.90
6696;DHT22;3385;48.928;10.330;2022-12-29T09:20:26;9.20;99.90
6696;DHT22;3385;48.928;10.330;2022-12-29T09:22:52;9.50;99.90
6696;DHT22;3385;48.928;10.330;2022-12-29T09:25:18;9.50;99.90
6696;DHT22;3385;48.928;10.330;2022-12-29T09:27:44;9.70;99.90
6696;DHT22;3385;48.928;10.330;2022-12-29T09:30:11;9.50;99.90
6696;DHT22;3385;48.928;10.330;2022-12-29T09:32:37;9.60;99.90
6696;DHT22;3385;48.928;10.330;2022-12-29T09:35:03;9.70;99.90
6696;DHT22;3385;48.928;10.330;2022-12-29T09:37:29;9.50;99.90
6696;DHT22;3385;48.928;10.330;2022-12-29T09:39:55;9.70;99.90
6696;DHT22;3385;48.928;10.330;2022-12-29T09:47:34;10.10;99.90
6696;DHT22;3385;48.928;10.330;2022-12-29T09:55:38;10.00;99.90
6696;DHT22;3385;48.928;10.330;2022-12-29T09:58:16;10.40;99.90
6696;DHT22;3385;48.928;10.330;2022-12-29T10:00:58;10.20;99.90
6696;DHT22;3385;48.928;10.330;2022-12-29T10:03:48;10.40;99.90
6696;DHT22;3385;48.928;10.330;2022-12-29T10:06:20;10.30;99.90
6696;DHT22;3385;48.928;10.330;2022-12-29T10:08:58;11.20;99.90
6696;DHT22;3385;48.928;10.330;2022-12-29T10:14:29;11.80;99.90
6696;DHT22;3385;48.928;10.330;2022-12-29T10:19:55;11.40;99.90
6696;DHT22;3385;48.928;10.330;2022-12-29T10:23:29;11.10;99.90
6696;DHT22;3385;48.928;10.330;2022-12-29T10:25:34;10.70;99.90
6696;DHT22;3385;48.928;10.330;2022-12-29T10:28:06;10.50;99.90
6696;DHT22;3385;48.928;10.330;2022-12-29T10:30:38;10.40;99.90
6696;DHT22;3385;48.928;10.330;2022-12-29T10:33:07;10.30;99.90
6696;DHT22;3385;48.928;10.330;2022-12-29T10:35:39;10.20;99.90
6696;DHT22;3385;48.928;10.330;2022-12-29T10:38:37;10.20;99.90
6696;DHT22;3385;48.928;10.330;2022-12-29T10:41:24;10.20;99.90
6696;DHT22;3385;48.928;10.330;2022-12-29T10:43:53;10.30;99.90
6696;DHT22;3385;48.928;10.330;2022-12-29T10:46:23;10.50;99.90
6696;DHT22;3385;48.928;10.330;2022-12-29T10:48:49;10.60;99.90
6696;DHT22;3385;48.928;10.330;2022-12-29T10:51:26;10.70;99.90
6696;DHT22;3385;48.928;10.330;2022-12-29T10:54:02;10.80;99.90
6696;DHT22;3385;48.928;10.330;2022-12-29T10:58:58;10.70;99.90
6696;DHT22;3385;48.928;10.330;2022-12-29T11:01:34;10.60;99.90
6696;DHT22;3385;48.928;10.330;2022-12-29T11:04:33;10.70;99.90
6696;DHT22;3385;48.928;10.330;2022-12-29T11:07:01;10.40;99.90
6696;DHT22;3385;48.928;10.330;2022-12-29T11:09:29;10.40;99.90
6696;DHT22;3385;48.928;10.330;2022-12-29T11:11:55;10.50;99.90
6696;DHT22;3385;48.928;10.330;2022-12-29T11:14:27;10.30;99.90
6696;DHT22;3385;48.928;10.330;2022-12-29T11:16:58;10.10;99.90
6696;DHT22;3385;48.928;10.330;2022-12-29T11:19:30;10.20;99.90
6696;DHT22;3385;48.928;10.330;2022-12-29T11:22:27;10.20;99.90
6696;DHT22;3385;48.928;10.330;2022-12-29T11:24:54;10.10;99.90
6696;DHT22;3385;48.928;10.330;2022-12-29T11:27:24;10.20;99.90
6696;DHT22;3385;48.928;10.330;2022-12-29T11:29:52;10.40;99.90
6696;DHT22;3385;48.928;10.330;2022-12-29T11:32:22;10.60;99.90
6696;DHT22;3385;48.928;10.330;2022-12-29T11:34:48;10.80;99.90
6696;DHT22;3385;48.928;10.330;2022-12-29T11:37:17;10.90;99.90
6696;DHT22;3385;48.928;10.330;2022-12-29T11:39:57;11.40;99.90
6696;DHT22;3385;48.928;10.330;2022-12-29T11:42:48;11.50;99.90
6696;DHT22;3385;48.928;10.330;2022-12-29T11:45:18;11.40;99.90
6696;DHT22;3385;48.928;10.330;2022-12-29T11:47:47;11.60;99.90
6696;DHT22;3385;48.928;10.330;2022-12-29T11:50:34;12.50;99.90
6696;DHT22;3385;48.928;10.330;2022-12-29T11:53:13;13.30;99.90
6696;DHT22;3385;48.928;10.330;2022-12-29T11:56:07;13.10;99.90
6696;DHT22;3385;48.928;10.330;2022-12-29T11:58:37;13.30;99.90
6696;DHT22;3385;48.928;10.330;2022-12-29T12:03:36;12.60;99.90
6696;DHT22;3385;48.928;10.330;2022-12-29T12:06:07;12.90;99.90
6696;DHT22;3385;48.928;10.330;2022-12-29T12:08:46;12.30;99.90
6696;DHT22;3385;48.928;10.330;2022-12-29T12:11:24;12.10;99.90
6696;DHT22;3385;48.928;10.330;2022-12-29T12:14:53;11.80;99.90
6696;DHT22;3385;48.928;10.330;2022-12-29T12:16:54;11.60;99.90
6696;DHT22;3385;48.928;10.330;2022-12-29T12:22:08;11.30;99.90
6696;DHT22;3385;48.928;10.330;2022-12-29T12:24:42;11.50;99.90
6696;DHT22;3385;48.928;10.330;2022-12-29T12:27:20;11.10;99.90
6696;DHT22;3385;48.928;10.330;2022-12-29T12:32:45;11.30;99.90
6696;DHT22;3385;48.928;10.330;2022-12-29T12:35:23;11.10;99.90
6696;DHT22;3385;48.928;10.330;2022-12-29T12:49:21;10.50;99.90
6696;DHT22;3385;48.928;10.330;2022-12-29T12:52:19;10.70;99.90
6696;DHT22;3385;48.928;10.330;2022-12-29T12:58:18;10.60;99.90
6696;DHT22;3385;48.928;10.330;2022-12-29T13:00:24;10.50;99.90
6696;DHT22;3385;48.928;10.330;2022-12-29T13:22:07;11.10;99.90
6696;DHT22;3385;48.928;10.330;2022-12-29T13:24:55;10.50;99.90
6696;DHT22;3385;48.928;10.330;2022-12-29T13:30:34;10.30;99.90
6696;DHT22;3385;48.928;10.330;2022-12-29T13:36:37;10.10;99.90
6696;DHT22;3385;48.928;10.330;2022-12-29T13:41:53;10.30;99.90
6696;DHT22;3385;48.928;10.330;2022-12-29T13:44:34;10.30;99.90
6696;DHT22;3385;48.928;10.330;2022-12-29T13:47:15;10.70;99.90
6696;DHT22;3385;48.928;10.330;2022-12-29T13:49:43;10.50;99.90
6696;DHT22;3385;48.928;10.330;2022-12-29T13:52:17;10.70;99.90
6696;DHT22;3385;48.928;10.330;2022-12-29T13:55:45;10.60;99.90
6696;DHT22;3385;48.928;10.330;2022-12-29T13:58:02;10.60;99.90
6696;DHT22;3385;48.928;10.330;2022-12-29T14:00:55;10.60;99.90
6696;DHT22;3385;48.928;10.330;2022-12-29T14:06:27;10.50;99.90
6696;DHT22;3385;48.928;10.330;2022-12-29T14:09:04;10.50;99.90
6696;DHT22;3385;48.928;10.330;2022-12-29T14:11:36;10.30;99.90
6696;DHT22;3385;48.928;10.330;2022-12-29T14:14:12;10.30;99.90
6696;DHT22;3385;48.928;10.330;2022-12-29T14:19:17;10.40;99.90
6696;DHT22;3385;48.928;10.330;2022-12-29T14:22:11;10.00;99.90
6696;DHT22;3385;48.928;10.330;2022-12-29T14:24:43;10.20;99.90
6696;DHT22;3385;48.928;10.330;2022-12-29T14:32:36;10.10;99.90
6696;DHT22;3385;48.928;10.330;2022-12-29T14:35:38;10.20;99.90
6696;DHT22;3385;48.928;10.330;2022-12-29T14:38:24;10.20;99.90
6696;DHT22;3385;48.928;10.330;2022-12-29T14:40:53;10.10;99.90
6696;DHT22;3385;48.928;10.330;2022-12-29T14:46:08;10.30;99.90
6696;DHT22;3385;48.928;10.330;2022-12-29T14:48:42;10.40;99.90
6696;DHT22;3385;48.928;10.330;2022-12-29T14:51:24;9.70;99.90
6696;DHT22;3385;48.928;10.330;2022-12-29T14:53:53;10.20;99.90
6696;DHT22;3385;48.928;10.330;2022-12-29T14:56:25;10.10;99.90
6696;DHT22;3385;48.928;10.330;2022-12-29T14:59:00;10.30;99.90
6696;DHT22;3385;48.928;10.330;2022-12-29T15:01:39;10.20;99.90
6696;DHT22;3385;48.928;10.330;2022-12-29T15:04:20;10.40;99.90
6696;DHT22;3385;48.928;10.330;2022-12-29T15:06:48;10.40;99.90
6696;DHT22;3385;48.928;10.330;2022-12-29T15:11:56;10.20;99.90
6696;DHT22;3385;48.928;10.330;2022-12-29T15:14:38;9.90;99.90
6696;DHT22;3385;48.928;10.330;2022-12-29T15:17:32;9.80;99.90
6696;DHT22;3385;48.928;10.330;2022-12-29T15:20:17;9.70;99.90
6696;DHT22;3385;48.928;10.330;2022-12-29T15:23:11;9.80;99.90
6696;DHT22;3385;48.928;10.330;2022-12-29T15:25:46;9.40;99.90
6696;DHT22;3385;48.928;10.330;2022-12-29T15:28:13;9.40;99.90
6696;DHT22;3385;48.928;10.330;2022-12-29T15:31:11;9.50;99.90
6696;DHT22;3385;48.928;10.330;2022-12-29T15:33:40;9.20;99.90
6696;DHT22;3385;48.928;10.330;2022-12-29T15:36:13;9.20;99.90
6696;DHT22;3385;48.928;10.330;2022-12-29T15:47:16;9.00;99.90
6696;DHT22;3385;48.928;10.330;2022-12-29T15:49:45;9.00;99.90
6696;DHT22;3385;48.928;10.330;2022-12-29T15:52:27;9.00;99.90
6696;DHT22;3385;48.928;10.330;2022-12-29T15:59:47;8.90;99.90
6696;DHT22;3385;48.928;10.330;2022-12-29T16:02:13;9.10;99.90
6696;DHT22;3385;48.928;10.330;2022-12-29T16:04:40;9.00;99.90
6696;DHT22;3385;48.928;10.330;2022-12-29T16:07:31;9.20;99.90
6696;DHT22;3385;48.928;10.330;2022-12-29T16:10:00;8.60;99.90
6696;DHT22;3385;48.928;10.330;2022-12-29T16:12:36;8.50;99.90
6696;DHT22;3385;48.928;10.330;2022-12-29T16:15:07;8.50;99.90
6696;DHT22;3385;48.928;10.330;2022-12-29T16:17:50;8.30;99.90
6696;DHT22;3385;48.928;10.330;2022-12-29T16:20:17;8.20;99.90
6696;DHT22;3385;48.928;10.330;2022-12-29T16:22:50;8.10;99.90
6696;DHT22;3385;48.928;10.330;2022-12-29T16:25:28;8.20;99.90
6696;DHT22;3385;48.928;10.330;2022-12-29T16:27:55;8.30;99.90
6696;DHT22;3385;48.928;10.330;2022-12-29T16:30:32;8.20;99.90
6696;DHT22;3385;48.928;10.330;2022-12-29T16:33:03;8.40;99.90
6696;DHT22;3385;48.928;10.330;2022-12-29T16:35:39;8.30;99.90
6696;DHT22;3385;48.928;10.330;2022-12-29T16:38:22;8.40;99.90
6696;DHT22;3385;48.928;10.330;2022-12-29T16:40:55;8.40;99.90
6696;DHT22;3385;48.928;10.330;2022-12-29T16:43:29;8.50;99.90
6696;DHT22;3385;48.928;10.330;2022-12-29T16:48:45;8.40;99.90
6696;DHT22;3385;48.928;10.330;2022-12-29T16:51:15;8.60;99.90
6696;DHT22;3385;48.928;10.330;2022-12-29T16:53:49;8.20;99.90
6696;DHT22;3385;48.928;10.330;2022-12-29T16:56:22;8.40;99.90
6696;DHT22;3385;48.928;10.330;2022-12-29T16:59:19;8.60;99.90
6696;DHT22;3385;48.928;10.330;2022-12-29T17:01:41;8.50;99.90
6696;DHT22;3385;48.928;10.330;2022-12-29T17:04:11;8.40;99.90
6696;DHT22;3385;48.928;10.330;2022-12-29T17:06:39;8.30;99.90
6696;DHT22;3385;48.928;10.330;2022-12-29T17:09:22;8.40;99.90
6696;DHT22;3385;48.928;10.330;2022-12-29T17:11:51;8.10;99.90
6696;DHT22;3385;48.928;10.330;2022-12-29T17:16:49;8.20;99.90
6696;DHT22;3385;48.928;10.330;2022-12-29T17:19:26;8.10;99.90
6696;DHT22;3385;48.928;10.330;2022-12-29T17:21:53;8.00;99.90
6696;DHT22;3385;48.928;10.330;2022-12-29T17:24:19;8.10;99.90
6696;DHT22;3385;48.928;10.330;2022-12-29T17:26:52;8.30;99.90
6696;DHT22;3385;48.928;10.330;2022-12-29T17:29:29;7.70;99.90
6696;DHT22;3385;48.928;10.330;2022-12-29T17:31:55;7.90;99.90
6696;DHT22;3385;48.928;10.330;2022-12-29T17:34:21;7.80;99.90
6696;DHT22;3385;48.928;10.330;2022-12-29T17:36:52;7.70;99.90
6696;DHT22;3385;48.928;10.330;2022-12-29T17:39:18;7.60;99.90
6696;DHT22;3385;48.928;10.330;2022-12-29T17:41:49;7.60;99.90
6696;DHT22;3385;48.928;10.330;2022-12-29T17:44:19;7.70;99.90
6696;DHT22;3385;48.928;10.330;2022-12-29T17:46:46;7.60;99.90
6696;DHT22;3385;48.928;10.330;2022-12-29T17:49:17;7.70;99.90
6696;DHT22;3385;48.928;10.330;2022-12-29T17:51:45;7.60;99.90
6696;DHT22;3385;48.928;10.330;2022-12-29T17:54:23;7.60;99.90
6696;DHT22;3385;48.928;10.330;2022-12-29T17:56:50;7.70;99.90
6696;DHT22;3385;48.928;10.330;2022-12-29T17:59:17;7.40;99.90
6696;DHT22;3385;48.928;10.330;2022-12-29T18:01:45;7.40;99.90
6696;DHT22;3385;48.928;10.330;2022-12-29T18:04:13;7.50;99.90
6696;DHT22;3385;48.928;10.330;2022-12-29T18:06:40;7.40;99.90
6696;DHT22;3385;48.928;10.330;2022-12-29T18:09:07;7.50;99.90
6696;DHT22;3385;48.928;10.330;2022-12-29T18:11:42;7.50;99.90
6696;DHT22;3385;48.928;10.330;2022-12-29T18:14:14;7.50;99.90
6696;DHT22;3385;48.928;10.330;2022-12-29T18:16:41;7.50;99.90
6696;DHT22;3385;48.928;10.330;2022-12-29T18:19:07;7.50;99.90
6696;DHT22;3385;48.928;10.330;2022-12-29T18:21:34;7.40;99.90
6696;DHT22;3385;48.928;10.330;2022-12-29T18:24:00;7.40;99.90
6696;DHT22;3385;48.928;10.330;2022-12-29T18:26:27;7.50;99.90
6696;DHT22;3385;48.928;10.330;2022-12-29T18:28:56;7.50;99.90
6696;DHT22;3385;48.928;10.330;2022-12-29T18:31:28;7.40;99.90
6696;DHT22;3385;48.928;10.330;2022-12-29T18:33:56;7.30;99.90
6696;DHT22;3385;48.928;10.330;2022-12-29T18:36:22;7.40;99.90
6696;DHT22;3385;48.928;10.330;2022-12-29T18:38:48;7.40;99.90
6696;DHT22;3385;48.928;10.330;2022-12-29T18:41:20;7.40;99.90
6696;DHT22;3385;48.928;10.330;2022-12-29T18:43:47;7.30;99.90
6696;DHT22;3385;48.928;10.330;2022-12-29T18:46:13;7.30;99.90
6696;DHT22;3385;48.928;10.330;2022-12-29T18:48:39;7.40;99.90